MSC Mia Summer — D5PF6 — position and weather

sailwx.info

Track history (hours):
 
Tides and Currents Weather Stations Pressure Air Temp Water Temp Dewpoint Dewpoint Depression Visibility Wind Speed Wind Dir Waves Ship Positions

MSC Mia Summer

Last reported at 2017-Dec-09 10:49 UTC. Time now 2017-Dec-16 15:14 UTC.
Position N 36°29' E 026°42'.

Length 216 m; draft 7.9 m.

Type: Other ship. MMSI: 636018326.

Date/timePositionNaut miles runAvg speedWind from/ knotsBaromVisibWave heightAir tempDewpointWater temp
2017-Dec-09 10:49N 36°29' E 026°42'515.7
2017-Dec-09 10:30N 36°33' E 026°38'815.0
2017-Dec-09 10:00N 36°39' E 026°32'714.4
2017-Dec-09 09:30N 36°45' E 026°26'715.0
2017-Dec-09 09:01N 36°50' E 026°20'714.8
2017-Dec-09 08:30N 36°56' E 026°14'713.8
2017-Dec-09 08:00N 37°02' E 026°10'713.3
2017-Dec-09 07:30N 37°07' E 026°05'713.5
2017-Dec-09 07:00N 37°13' E 026°01'713.5
2017-Dec-09 06:30N 37°20' E 025°59'713.2
2017-Dec-09 06:00N 37°25' E 025°55'713.4
2017-Dec-09 05:30N 37°32' E 025°53'1713.5
2017-Dec-09 04:17N 37°48' E 025°50'  
2017-Dec-03 05:32N 37°30' E 025°52'014.2
2017-Dec-03 05:31N 37°30' E 025°52'714.1
2017-Dec-03 05:00N 37°25' E 025°59'713.9
2017-Dec-03 04:30N 37°21' E 026°06'714.0
2017-Dec-03 04:01N 37°17' E 026°13'713.7
2017-Dec-03 03:30N 37°12' E 026°19'713.6
2017-Dec-03 03:00N 37°08' E 026°26'713.9
2017-Dec-03 02:29N 37°03' E 026°33'4014.1
2017-Dec-02 23:37N 36°27' E 026°53'3414.2
2017-Dec-02 21:13N 36°04' E 027°25'  
Track history (hours):
 
Tides and Currents Weather Stations Pressure Air Temp Water Temp Dewpoint Dewpoint Depression Visibility Wind Speed Wind Dir Waves Ship Positions

MSC Mia Summer

Last reported at 2017-Dec-09 10:49 UTC. Time now 2017-Dec-16 15:14 UTC.
Position N 36°29' E 026°42'.

Length 216 m; draft 7.9 m.

Type: Other ship. MMSI: 636018326.

Date/timePositionNaut miles runAvg speedWind from/ knotsBaromVisibWave heightAir tempDewpointWater temp
2017-Dec-09 10:49N 36°29' E 026°42'515.7
2017-Dec-09 10:30N 36°33' E 026°38'815.0
2017-Dec-09 10:00N 36°39' E 026°32'714.4
2017-Dec-09 09:30N 36°45' E 026°26'715.0
2017-Dec-09 09:01N 36°50' E 026°20'714.8
2017-Dec-09 08:30N 36°56' E 026°14'713.8
2017-Dec-09 08:00N 37°02' E 026°10'713.3
2017-Dec-09 07:30N 37°07' E 026°05'713.5
2017-Dec-09 07:00N 37°13' E 026°01'713.5
2017-Dec-09 06:30N 37°20' E 025°59'713.2
2017-Dec-09 06:00N 37°25' E 025°55'713.4
2017-Dec-09 05:30N 37°32' E 025°53'1713.5
2017-Dec-09 04:17N 37°48' E 025°50'  
2017-Dec-03 05:32N 37°30' E 025°52'014.2
2017-Dec-03 05:31N 37°30' E 025°52'714.1
2017-Dec-03 05:00N 37°25' E 025°59'713.9
2017-Dec-03 04:30N 37°21' E 026°06'714.0
2017-Dec-03 04:01N 37°17' E 026°13'713.7
2017-Dec-03 03:30N 37°12' E 026°19'713.6
2017-Dec-03 03:00N 37°08' E 026°26'713.9
2017-Dec-03 02:29N 37°03' E 026°33'4014.1
2017-Dec-02 23:37N 36°27' E 026°53'3414.2
2017-Dec-02 21:13N 36°04' E 027°25'  

Dump ship's entire track history